Terminal Aerodrome Forecast
Issued by NWS Cleveland, OH

Home | Current Version | Previous Version | Graphics & Text | Print | Product List | Glossary On
Versions: 1 2 3 4 5 6 7 8 9 10 11 12 13 14 15 16 17 18
000
FTUS41 KCLE 221726
TAFYNG
TAF
KYNG 221726Z 2218/2318 24008KT P6SM VCSH SCT035 OVC110
     FM222000 21008KT P6SM SCT040 BKN150
     FM230700 20008KT P6SM -SHRA SCT025 OVC045
     FM230900 19008KT P6SM -SHRA VCTS SCT007CB OVC015=

USA.gov is the U.S. government's official web portal to all federal, state and local government web resources and services.